createdAt,value
2017-11-28T00:01:33.223Z,9.10
2017-11-28T00:04:00.683Z,9.10
2017-11-28T00:06:28.227Z,9.30
2017-11-28T00:08:55.670Z,9.70
2017-11-28T00:11:23.915Z,9.80
2017-11-28T00:13:51.338Z,9.80
2017-11-28T00:16:18.790Z,10.00
2017-11-28T00:18:46.242Z,9.40
2017-11-28T00:21:13.678Z,9.60
2017-11-28T00:23:41.130Z,9.40
2017-11-28T00:26:09.340Z,9.40
2017-11-28T00:28:38.334Z,9.30
2017-11-28T00:31:05.772Z,9.30
2017-11-28T00:33:33.226Z,9.20
2017-11-28T00:36:00.679Z,9.10
2017-11-28T00:38:28.882Z,9.30
2017-11-28T00:40:56.317Z,9.30
2017-11-28T00:43:23.770Z,8.80
2017-11-28T00:45:51.227Z,9.20
2017-11-28T00:48:18.687Z,8.90
2017-11-28T00:50:46.142Z,9.20
2017-11-28T00:53:14.342Z,9.30
2017-11-28T00:55:41.787Z,9.30
2017-11-28T00:58:09.246Z,9.10
2017-11-28T01:00:37.604Z,9.40
2017-11-28T01:03:05.814Z,9.40
2017-11-28T01:05:33.273Z,9.40
2017-11-28T01:08:00.735Z,9.10
2017-11-28T01:10:28.210Z,9.30
2017-11-28T01:12:55.659Z,9.40
2017-11-28T01:15:23.110Z,9.60
2017-11-28T01:17:50.559Z,9.60
2017-11-28T01:20:18.030Z,9.70
2017-11-28T01:22:45.492Z,9.20
2017-11-28T01:25:12.936Z,9.40
2017-11-28T01:27:40.387Z,9.20
2017-11-28T01:30:07.860Z,9.30
2017-11-28T01:32:35.314Z,9.10
2017-11-28T01:35:02.774Z,9.30
2017-11-28T01:37:30.219Z,9.40
2017-11-28T01:39:57.678Z,9.50
2017-11-28T01:42:25.137Z,9.70
2017-11-28T01:44:52.610Z,9.10
2017-11-28T01:47:20.062Z,9.00
2017-11-28T01:49:47.510Z,9.20
2017-11-28T01:52:14.970Z,9.20
2017-11-28T01:54:42.427Z,9.30
2017-11-28T01:57:09.879Z,9.30
2017-11-28T01:59:38.495Z,9.10
2017-11-28T02:02:05.951Z,9.10
2017-11-28T02:04:33.386Z,9.30
2017-11-28T02:07:00.850Z,9.30
2017-11-28T02:09:28.331Z,9.70
2017-11-28T02:11:55.790Z,9.70
2017-11-28T02:14:23.231Z,10.00
2017-11-28T02:16:50.715Z,9.80
2017-11-28T02:19:18.165Z,9.40
2017-11-28T02:21:45.642Z,9.50
2017-11-28T02:24:13.086Z,9.60
2017-11-28T02:26:40.530Z,9.40
2017-11-28T02:29:08.006Z,9.20
2017-11-28T02:31:35.423Z,9.20
2017-11-28T02:34:02.874Z,9.50
2017-11-28T02:36:30.313Z,9.20
2017-11-28T02:38:57.759Z,9.50
2017-11-28T02:41:25.953Z,9.10
2017-11-28T02:43:59.883Z,9.00
2017-11-28T02:46:27.320Z,9.30
2017-11-28T02:49:00.108Z,8.90
2017-11-28T02:51:27.542Z,9.40
2017-11-28T02:53:55.029Z,9.10
2017-11-28T02:56:22.468Z,8.60
2017-11-28T02:58:50.732Z,8.90
2017-11-28T03:01:28.410Z,9.60
2017-11-28T03:03:55.884Z,9.50
2017-11-28T03:06:24.093Z,9.70
2017-11-28T03:08:52.379Z,9.70
2017-11-28T03:11:19.859Z,9.90
2017-11-28T03:13:48.008Z,10.00
2017-11-28T03:16:19.270Z,9.70
2017-11-28T03:21:39.247Z,9.30
2017-11-28T03:24:17.445Z,9.70
2017-11-28T03:26:44.905Z,9.60
2017-11-28T03:29:23.892Z,9.30
2017-11-28T03:31:51.357Z,9.40
2017-11-28T03:34:20.399Z,9.20
2017-11-28T03:36:47.838Z,9.20
2017-11-28T03:39:15.314Z,9.30
2017-11-28T03:41:42.771Z,9.60
2017-11-28T03:44:35.834Z,9.70
2017-11-28T03:47:03.270Z,9.60
2017-11-28T03:49:30.726Z,9.60
2017-11-28T03:51:58.207Z,9.70
2017-11-28T03:54:25.667Z,9.70
2017-11-28T03:56:53.106Z,9.70
2017-11-28T03:59:20.589Z,10.00
2017-11-28T04:01:48.039Z,9.70
2017-11-28T04:04:15.479Z,9.50
2017-11-28T04:06:42.946Z,10.00
2017-11-28T04:09:10.422Z,9.80
2017-11-28T04:11:39.102Z,10.00
2017-11-28T04:14:06.562Z,9.90
2017-11-28T04:16:34.023Z,10.10
2017-11-28T04:19:01.470Z,9.90
2017-11-28T04:21:28.938Z,9.00
2017-11-28T04:23:56.416Z,9.30
2017-11-28T04:26:23.862Z,9.40
2017-11-28T04:28:51.327Z,9.50
2017-11-28T04:31:18.762Z,9.90
2017-11-28T04:33:46.252Z,9.50
2017-11-28T04:36:13.690Z,9.70
2017-11-28T04:38:41.149Z,9.70
2017-11-28T04:41:08.592Z,9.70
2017-11-28T04:43:36.025Z,9.50
2017-11-28T04:46:03.477Z,9.50
2017-11-28T04:48:30.956Z,9.50
2017-11-28T04:50:58.426Z,9.70
2017-11-28T04:53:25.907Z,9.40
2017-11-28T04:55:53.350Z,9.10
2017-11-28T04:58:20.792Z,9.20
2017-11-28T05:00:48.249Z,9.40
2017-11-28T05:03:15.718Z,8.90
2017-11-28T05:05:43.694Z,9.30
2017-11-28T05:08:11.152Z,9.30
2017-11-28T05:10:38.589Z,9.00
2017-11-28T05:13:06.061Z,9.20
2017-11-28T05:15:33.522Z,9.30
2017-11-28T05:18:02.777Z,9.60
2017-11-28T05:20:30.978Z,9.40
2017-11-28T05:22:58.435Z,9.40
2017-11-28T05:25:25.897Z,9.50
2017-11-28T05:27:53.340Z,9.70
2017-11-28T05:30:20.815Z,9.80
2017-11-28T05:32:48.278Z,9.80
2017-11-28T05:35:16.298Z,9.70
2017-11-28T05:37:44.522Z,9.80
2017-11-28T05:40:11.981Z,9.80
2017-11-28T05:42:39.431Z,9.30
2017-11-28T05:45:06.914Z,8.90
2017-11-28T05:47:34.350Z,9.00
2017-11-28T05:50:01.795Z,8.80
2017-11-28T05:52:29.238Z,9.20
2017-11-28T05:54:56.706Z,9.00
2017-11-28T05:57:24.156Z,9.10
2017-11-28T05:59:51.613Z,9.10
2017-11-28T06:02:19.707Z,9.20
2017-11-28T06:04:47.150Z,9.10
2017-11-28T06:07:14.614Z,9.30
2017-11-28T06:09:42.059Z,9.30
2017-11-28T06:12:09.523Z,9.50
2017-11-28T06:14:36.973Z,9.40
2017-11-28T06:17:04.431Z,9.50
2017-11-28T06:19:32.631Z,9.30
2017-11-28T06:22:00.070Z,9.30
2017-11-28T06:24:27.603Z,8.80
2017-11-28T06:26:55.812Z,9.30
2017-11-28T06:29:23.271Z,9.30
2017-11-28T06:31:50.753Z,9.50
2017-11-28T06:34:18.191Z,9.10
2017-11-28T06:36:45.648Z,9.20
2017-11-28T06:39:13.110Z,9.20
2017-11-28T06:41:40.570Z,9.00
2017-11-28T06:44:08.093Z,8.60
2017-11-28T06:46:43.179Z,9.00
2017-11-28T06:49:10.623Z,9.00
2017-11-28T06:51:38.806Z,8.70
2017-11-28T06:54:07.173Z,8.90
2017-11-28T06:56:34.651Z,9.20
2017-11-28T06:59:02.119Z,9.40
2017-11-28T07:01:29.578Z,9.20
2017-11-28T07:03:57.035Z,9.00
2017-11-28T07:06:24.483Z,8.50
2017-11-28T07:08:51.956Z,8.80
2017-11-28T07:11:19.415Z,8.90
2017-11-28T07:13:46.877Z,8.80
2017-11-28T07:16:14.327Z,8.60
2017-11-28T07:18:41.784Z,9.00
2017-11-28T07:21:09.228Z,8.70
2017-11-28T07:23:37.497Z,9.00
2017-11-28T07:26:04.956Z,9.00
2017-11-28T07:28:32.426Z,8.80
2017-11-28T07:30:59.883Z,8.90
2017-11-28T07:33:27.367Z,8.80
2017-11-28T07:35:54.930Z,9.00
2017-11-28T07:38:22.387Z,9.00
2017-11-28T07:40:49.841Z,9.10
2017-11-28T07:43:17.323Z,9.20
2017-11-28T07:45:45.552Z,9.10
2017-11-28T07:48:13.042Z,9.10
2017-11-28T07:50:40.505Z,9.30
2017-11-28T07:53:08.699Z,9.50
2017-11-28T07:55:36.139Z,9.50
2017-11-28T07:58:03.607Z,9.80
2017-11-28T08:00:31.048Z,9.60
2017-11-28T08:02:59.242Z,9.20
2017-11-28T08:05:26.690Z,9.20
2017-11-28T08:07:54.954Z,9.60
2017-11-28T08:10:22.398Z,9.60
2017-11-28T08:12:49.849Z,9.40
2017-11-28T08:15:17.318Z,9.10
2017-11-28T08:17:44.767Z,9.00
2017-11-28T08:20:12.212Z,9.10
2017-11-28T08:22:39.683Z,9.40
2017-11-28T08:25:07.106Z,9.50
2017-11-28T08:27:34.557Z,9.30
2017-11-28T08:30:02.023Z,9.00
2017-11-28T08:32:29.458Z,8.90
2017-11-28T08:34:56.890Z,9.40
2017-11-28T08:37:25.182Z,9.30
2017-11-28T08:39:53.377Z,9.60
2017-11-28T08:42:20.835Z,9.60
2017-11-28T08:44:48.270Z,9.70
2017-11-28T08:47:15.805Z,9.70
2017-11-28T08:49:44.032Z,9.80
2017-11-28T08:52:11.468Z,9.80
2017-11-28T08:54:39.327Z,9.90
2017-11-28T08:57:07.547Z,9.70
2017-11-28T08:59:34.993Z,9.60
2017-11-28T09:02:02.448Z,9.70
2017-11-28T09:04:29.897Z,9.60
2017-11-28T09:06:57.348Z,10.40
2017-11-28T09:09:24.818Z,10.70
2017-11-28T09:11:52.286Z,10.90
2017-11-28T09:14:19.737Z,10.50
2017-11-28T09:16:47.188Z,10.40
2017-11-28T09:19:14.648Z,10.10
2017-11-28T09:21:42.100Z,10.00
2017-11-28T09:24:09.562Z,10.40
2017-11-28T09:26:37.038Z,10.00
2017-11-28T09:29:04.475Z,9.90
2017-11-28T09:31:31.937Z,10.20
2017-11-28T09:33:59.422Z,10.00
2017-11-28T09:36:26.878Z,10.70
2017-11-28T09:38:54.410Z,11.00
2017-11-28T09:41:21.882Z,11.10
2017-11-28T09:43:49.342Z,10.80
2017-11-28T09:46:16.817Z,11.30
2017-11-28T09:48:44.255Z,10.80
2017-11-28T09:51:11.755Z,10.90
2017-11-28T09:53:39.535Z,11.20
2017-11-28T09:56:07.747Z,11.20
2017-11-28T09:58:35.209Z,11.20
2017-11-28T10:01:02.642Z,11.10
2017-11-28T10:03:30.123Z,11.40
2017-11-28T10:05:57.571Z,12.20
2017-11-28T10:08:25.037Z,11.50
2017-11-28T10:10:52.528Z,12.10
2017-11-28T10:13:19.959Z,12.80
2017-11-28T10:15:47.410Z,13.10
2017-11-28T10:18:14.863Z,12.30
2017-11-28T10:20:42.321Z,12.00
2017-11-28T10:23:09.785Z,11.30
2017-11-28T10:25:37.243Z,10.90
2017-11-28T10:28:04.697Z,10.60
2017-11-28T10:30:32.179Z,10.90
2017-11-28T10:32:59.642Z,11.00
2017-11-28T10:35:27.099Z,10.70
2017-11-28T10:37:54.556Z,10.80
2017-11-28T10:40:21.996Z,9.60
2017-11-28T10:42:49.454Z,9.80
2017-11-28T10:45:16.907Z,10.40
2017-11-28T10:47:44.395Z,10.00
2017-11-28T10:50:11.856Z,9.90
2017-11-28T10:52:39.619Z,9.90
2017-11-28T10:55:07.055Z,10.00
2017-11-28T10:57:34.540Z,10.20
2017-11-28T11:00:01.983Z,9.70
2017-11-28T11:02:29.438Z,9.90
2017-11-28T11:04:56.897Z,10.00
2017-11-28T11:07:28.563Z,10.00
2017-11-28T11:09:56.318Z,10.10
2017-11-28T11:12:23.776Z,10.60
2017-11-28T11:14:51.241Z,10.10
2017-11-28T11:17:19.718Z,10.70
2017-11-28T11:19:47.210Z,10.80
2017-11-28T11:22:15.477Z,10.60
2017-11-28T11:24:42.916Z,10.60
2017-11-28T11:27:10.377Z,11.00
2017-11-28T11:29:37.833Z,11.00
2017-11-28T11:32:06.366Z,10.90
2017-11-28T11:34:33.798Z,10.50
2017-11-28T11:37:02.059Z,10.20
2017-11-28T11:39:29.514Z,10.10
2017-11-28T11:41:56.978Z,10.00
2017-11-28T11:44:29.790Z,10.20
2017-11-28T11:46:57.255Z,10.20
2017-11-28T11:49:24.695Z,11.10
2017-11-28T11:51:52.134Z,11.70
2017-11-28T11:54:20.392Z,11.90
2017-11-28T11:56:47.857Z,11.90
2017-11-28T11:59:15.322Z,12.10
2017-11-28T12:01:42.761Z,12.40
2017-11-28T12:04:10.194Z,12.60
2017-11-28T12:06:37.678Z,12.80
2017-11-28T12:09:05.165Z,12.10
2017-11-28T12:11:33.369Z,13.50
2017-11-28T12:14:00.820Z,13.50
2017-11-28T12:16:28.351Z,14.90
2017-11-28T12:18:56.565Z,15.50
2017-11-28T12:21:24.026Z,15.50
2017-11-28T12:23:51.454Z,13.10
2017-11-28T12:26:19.658Z,14.40
2017-11-28T12:28:47.143Z,14.40
2017-11-28T12:31:14.598Z,14.80
2017-11-28T12:33:42.089Z,15.10
2017-11-28T12:36:09.502Z,14.20
2017-11-28T12:38:36.947Z,13.40
2017-11-28T12:41:04.419Z,13.10
2017-11-28T12:43:31.900Z,13.50
2017-11-28T12:45:59.331Z,12.70
2017-11-28T12:48:26.801Z,13.10
2017-11-28T12:50:54.242Z,12.70
2017-11-28T12:53:21.712Z,12.70
2017-11-28T12:55:49.155Z,13.00
2017-11-28T12:58:16.605Z,12.80
2017-11-28T13:00:44.043Z,12.40
2017-11-28T13:03:11.532Z,12.90
2017-11-28T13:05:39.870Z,12.40
2017-11-28T13:08:08.086Z,11.40
2017-11-28T13:10:35.516Z,11.30
2017-11-28T13:13:02.994Z,11.50
2017-11-28T13:15:30.435Z,11.50
2017-11-28T13:17:57.910Z,11.40
2017-11-28T13:20:25.372Z,11.80
2017-11-28T13:22:52.810Z,11.50
2017-11-28T13:25:20.291Z,11.50
2017-11-28T13:27:47.747Z,11.70
2017-11-28T13:30:15.215Z,11.70
2017-11-28T13:32:42.690Z,11.30
2017-11-28T13:35:10.164Z,11.20
2017-11-28T13:37:37.622Z,11.10
2017-11-28T13:40:05.829Z,11.00
2017-11-28T13:42:33.268Z,11.00
2017-11-28T13:45:01.483Z,11.70
2017-11-28T13:47:28.975Z,11.60
2017-11-28T13:49:56.434Z,11.10
2017-11-28T13:52:23.896Z,11.30
2017-11-28T13:54:51.354Z,11.10
2017-11-28T13:57:18.812Z,11.20
2017-11-28T13:59:46.230Z,11.70
2017-11-28T14:02:13.698Z,12.10
2017-11-28T14:04:41.146Z,12.00
2017-11-28T14:07:08.598Z,12.20
2017-11-28T14:09:36.059Z,12.70
2017-11-28T14:12:03.518Z,12.40
2017-11-28T14:14:30.959Z,12.80
2017-11-28T14:16:58.443Z,12.30
2017-11-28T14:19:26.312Z,11.60
2017-11-28T14:22:08.619Z,11.40
2017-11-28T14:27:37.430Z,11.10
2017-11-28T14:30:04.893Z,11.00
2017-11-28T14:32:34.602Z,11.20
2017-11-28T14:35:07.682Z,11.60
2017-11-28T14:37:35.124Z,11.90
2017-11-28T14:40:02.582Z,11.80
2017-11-28T14:42:30.043Z,10.70
2017-11-28T14:45:12.355Z,11.00
2017-11-28T14:47:40.143Z,10.80
2017-11-28T14:50:07.577Z,10.50
2017-11-28T14:52:40.605Z,10.90
2017-11-28T14:55:14.077Z,10.20
2017-11-28T14:57:42.584Z,10.50
2017-11-28T15:00:15.951Z,10.80
2017-11-28T15:02:49.121Z,11.00
2017-11-28T15:05:22.127Z,10.90
2017-11-28T15:07:55.193Z,10.80
2017-11-28T15:10:38.264Z,10.60
2017-11-28T15:13:11.435Z,10.50
2017-11-28T15:18:41.370Z,10.30
2017-11-28T15:21:09.369Z,10.30
2017-11-28T15:23:43.299Z,10.30
2017-11-28T15:26:20.144Z,10.10
2017-11-28T15:28:51.377Z,10.30
2017-11-28T15:31:18.847Z,10.30
2017-11-28T15:33:46.341Z,9.90
2017-11-28T15:36:13.775Z,9.90
2017-11-28T15:38:41.565Z,10.30
2017-11-28T15:41:09.011Z,10.50
2017-11-28T15:43:36.472Z,10.30
2017-11-28T15:46:03.927Z,10.30
2017-11-28T15:48:31.355Z,10.40
2017-11-28T15:51:00.119Z,10.40
2017-11-28T15:53:27.554Z,10.40
2017-11-28T15:55:55.083Z,10.10
2017-11-28T15:58:22.559Z,10.00
2017-11-28T16:00:49.998Z,10.00
2017-11-28T16:03:17.471Z,10.20
2017-11-28T16:05:44.914Z,10.30
2017-11-28T16:08:12.380Z,10.40
2017-11-28T16:10:41.098Z,10.40
2017-11-28T16:13:08.546Z,10.30
2017-11-28T16:15:35.998Z,10.20
2017-11-28T16:18:03.447Z,10.20
2017-11-28T16:20:31.667Z,10.30
2017-11-28T16:22:59.106Z,10.30
2017-11-28T16:25:26.558Z,10.40
2017-11-28T16:27:54.796Z,10.80
2017-11-28T16:30:22.250Z,10.80
2017-11-28T16:32:49.731Z,11.10
2017-11-28T16:35:17.994Z,10.60
2017-11-28T16:37:45.448Z,10.60
2017-11-28T16:40:12.908Z,10.20
2017-11-28T16:42:40.383Z,9.70
2017-11-28T16:45:08.593Z,10.00
2017-11-28T16:47:36.043Z,10.00
2017-11-28T16:50:03.485Z,10.00
2017-11-28T16:52:30.946Z,9.90
2017-11-28T16:54:58.627Z,9.80
2017-11-28T16:57:26.855Z,10.00
2017-11-28T16:59:54.323Z,10.00
2017-11-28T17:02:22.557Z,9.00
2017-11-28T17:04:50.103Z,9.00
2017-11-28T17:07:17.558Z,8.80
2017-11-28T17:09:45.008Z,9.10
2017-11-28T17:12:12.480Z,9.00
2017-11-28T17:14:40.408Z,8.90
2017-11-28T17:17:08.627Z,9.00
2017-11-28T17:19:36.116Z,9.10
2017-11-28T17:22:03.607Z,9.30
2017-11-28T17:24:31.807Z,9.30
2017-11-28T17:26:59.267Z,9.30
2017-11-28T17:29:27.666Z,9.50
2017-11-28T17:31:55.134Z,9.40
2017-11-28T17:34:22.583Z,9.40
2017-11-28T17:36:50.047Z,9.30
2017-11-28T17:39:17.488Z,9.20
2017-11-28T17:41:44.959Z,9.10
2017-11-28T17:44:12.410Z,9.30
2017-11-28T17:46:40.476Z,9.10
2017-11-28T17:49:07.904Z,8.90
2017-11-28T17:51:35.375Z,8.70
2017-11-28T17:54:02.859Z,8.80
2017-11-28T17:56:30.334Z,8.60
2017-11-28T17:58:57.754Z,8.20
2017-11-28T18:01:25.219Z,8.40
2017-11-28T18:03:52.680Z,8.80
2017-11-28T18:06:20.139Z,9.10
2017-11-28T18:08:47.578Z,9.20
2017-11-28T18:11:15.041Z,9.00
2017-11-28T18:13:43.249Z,9.10
2017-11-28T18:16:10.684Z,9.10
2017-11-28T18:18:38.152Z,9.00
2017-11-28T18:21:05.666Z,9.10
2017-11-28T18:23:33.950Z,9.60
2017-11-28T18:26:01.404Z,9.60
2017-11-28T18:28:28.868Z,9.50
2017-11-28T18:30:56.339Z,9.60
2017-11-28T18:33:23.799Z,9.70
2017-11-28T18:35:51.287Z,9.90
2017-11-28T18:38:18.759Z,9.80
2017-11-28T18:40:46.256Z,9.40
2017-11-28T18:43:14.486Z,9.10
2017-11-28T18:45:41.943Z,9.10
2017-11-28T18:48:09.596Z,9.20
2017-11-28T18:50:37.055Z,9.50
2017-11-28T18:53:04.506Z,9.40
2017-11-28T18:55:31.984Z,9.30
2017-11-28T18:57:59.443Z,9.00
2017-11-28T19:00:26.891Z,9.10
2017-11-28T19:02:54.351Z,9.10
2017-11-28T19:05:21.830Z,9.10
2017-11-28T19:07:49.286Z,9.00
2017-11-28T19:10:16.753Z,9.40
2017-11-28T19:12:44.182Z,9.60
2017-11-28T19:15:11.643Z,9.10
2017-11-28T19:17:39.599Z,8.80
2017-11-28T19:20:07.070Z,8.80
2017-11-28T19:22:34.555Z,8.80
2017-11-28T19:25:02.785Z,8.70
2017-11-28T19:27:30.444Z,8.70
2017-11-28T19:29:58.723Z,8.80
2017-11-28T19:32:26.147Z,8.80
2017-11-28T19:34:53.586Z,8.80
2017-11-28T19:37:21.052Z,9.00
2017-11-28T19:39:49.277Z,8.90
2017-11-28T19:42:16.748Z,8.90
2017-11-28T19:44:44.214Z,8.90
2017-11-28T19:47:11.684Z,9.20
2017-11-28T19:49:40.807Z,9.60
2017-11-28T19:52:08.264Z,9.60
2017-11-28T19:54:35.722Z,9.70
2017-11-28T19:57:03.919Z,9.90
2017-11-28T19:59:31.355Z,9.90
2017-11-28T20:01:58.790Z,9.90
2017-11-28T20:04:26.990Z,10.00
2017-11-28T20:06:54.446Z,9.90
2017-11-28T20:09:21.886Z,10.10
2017-11-28T20:11:50.142Z,10.10
2017-11-28T20:14:17.626Z,10.10
2017-11-28T20:16:45.827Z,10.20
2017-11-28T20:19:13.383Z,10.20
2017-11-28T20:21:40.852Z,10.20
2017-11-28T20:24:08.379Z,10.20
2017-11-28T20:26:36.583Z,10.20
2017-11-28T20:29:04.096Z,10.20
2017-11-28T20:31:33.396Z,10.20
2017-11-28T20:34:00.948Z,10.20
2017-11-28T20:36:28.379Z,10.40
2017-11-28T20:38:55.833Z,10.30
2017-11-28T20:41:23.297Z,10.30
2017-11-28T20:43:50.736Z,10.30
2017-11-28T20:46:18.247Z,10.20
2017-11-28T20:48:46.490Z,9.70
2017-11-28T20:51:13.918Z,9.70
2017-11-28T20:53:42.197Z,10.00
2017-11-28T20:56:09.654Z,10.00
2017-11-28T20:58:37.852Z,9.90
2017-11-28T21:01:05.306Z,9.90
2017-11-28T21:03:32.759Z,9.50
2017-11-28T21:06:00.210Z,9.90
2017-11-28T21:08:27.698Z,9.80
2017-11-28T21:10:55.242Z,10.20
2017-11-28T21:13:22.693Z,10.10
2017-11-28T21:15:50.162Z,10.30
2017-11-28T21:18:17.703Z,10.40
2017-11-28T21:20:45.184Z,10.40
2017-11-28T21:23:12.626Z,10.30
2017-11-28T21:25:41.078Z,10.30
2017-11-28T21:28:08.535Z,10.30
2017-11-28T21:30:36.027Z,9.70
2017-11-28T21:33:03.461Z,9.80
2017-11-28T21:35:30.976Z,9.70
2017-11-28T21:37:58.415Z,9.50
2017-11-28T21:40:25.870Z,9.60
2017-11-28T21:42:53.338Z,9.90
2017-11-28T21:45:20.798Z,10.10
2017-11-28T21:47:48.247Z,10.20
2017-11-28T21:50:15.703Z,10.20
2017-11-28T21:52:43.176Z,10.20
2017-11-28T21:55:10.642Z,9.80
2017-11-28T21:57:38.926Z,9.90
2017-11-28T22:00:07.179Z,10.00
2017-11-28T22:02:34.651Z,9.90
2017-11-28T22:05:02.097Z,10.00
2017-11-28T22:07:29.574Z,9.70
2017-11-28T22:09:57.818Z,9.50
2017-11-28T22:12:25.258Z,9.50
2017-11-28T22:14:52.718Z,9.20
2017-11-28T22:17:20.184Z,9.20
2017-11-28T22:19:47.642Z,9.10
2017-11-28T22:22:15.090Z,9.20
2017-11-28T22:24:42.515Z,9.10
2017-11-28T22:27:09.972Z,8.80
2017-11-28T22:29:38.195Z,8.90
2017-11-28T22:32:05.699Z,8.80
2017-11-28T22:34:33.946Z,9.00
2017-11-28T22:37:01.412Z,9.00
2017-11-28T22:39:28.852Z,8.80
2017-11-28T22:41:56.587Z,8.70
2017-11-28T22:44:24.711Z,8.80
2017-11-28T22:46:52.974Z,8.80
2017-11-28T22:49:20.438Z,8.80
2017-11-28T22:51:47.923Z,8.70
2017-11-28T22:54:16.106Z,8.80
2017-11-28T22:56:43.568Z,8.80
2017-11-28T22:59:11.004Z,8.80
2017-11-28T23:01:39.221Z,9.00
2017-11-28T23:04:06.678Z,9.00
2017-11-28T23:06:34.127Z,9.10
2017-11-28T23:09:01.569Z,9.10
2017-11-28T23:11:29.672Z,9.10
2017-11-28T23:14:00.904Z,8.60
2017-11-28T23:16:29.799Z,8.80
2017-11-28T23:18:57.254Z,8.70
2017-11-28T23:21:24.696Z,8.70
2017-11-28T23:23:52.155Z,8.80
2017-11-28T23:26:19.632Z,8.80
2017-11-28T23:28:47.091Z,8.60
2017-11-28T23:31:14.564Z,8.30
2017-11-28T23:33:42.072Z,8.30
2017-11-28T23:36:10.277Z,8.50
2017-11-28T23:38:37.763Z,8.50
2017-11-28T23:41:05.211Z,8.30
2017-11-28T23:43:32.659Z,8.50
2017-11-28T23:46:01.105Z,8.40
2017-11-28T23:48:29.326Z,8.50
2017-11-28T23:50:56.772Z,8.50
2017-11-28T23:53:24.759Z,8.40
2017-11-28T23:55:52.215Z,8.20
2017-11-28T23:58:19.663Z,8.00
